Home   Weather   South Africa   Cape Town   Past weeks
Flag for South Africa

Past Weather in Cape Town, South Africa — Yesterday and Last 2 Weeks

Currently: 52 °F. Fog. (Weather station: Cape Town International Airport, South Africa). See more current weather

Past Weather in Cape Town — Graph

°F

Cape Town Temperature Yesterday

Maximum temperature yesterday: 66 °F (at 4:00 pm)
Minimum temperature yesterday: 45 °F (at 5:00 am)
Average temperature yesterday: 52 °F

High & Low Weather Summary for the Past Weeks

 TemperatureHumidityPressure
High82 °F (Jun 7, 3:00 pm)100% (May 31, 9:00 pm)30.48 "Hg (May 31, 9:00 pm)
Low43 °F (Jun 4, 5:00 am)18% (Jun 6, 2:00 pm)29.80 "Hg (Jun 7, 3:00 pm)
Average58 °F79%30.14 "Hg
* Reported May 31 8:00 am — Jun 15 8:00 am, Cape Town. Weather by CustomWeather, © 2021

Note: Actual official high and low records may vary slightly from our data, if they occured in-between our weather recording intervals... More about our weather records

Cape Town Weather History for the Previous 24 Hours

Scroll right to see more
 ConditionsComfort  
Time TempWeatherWind HumidityBarometerVisibility
8:00 am
Tue, Jun 15
52 °FScattered clouds.9 mph94%29.98 "Hg4 mi
7:56 am52 °FScattered clouds.9 mph94%29.98 "Hg4 mi
7:00 am52 °FFog.5 mph94%29.98 "Hg2 mi
6:28 am52 °FFog.3 mph94%29.98 "Hg2 mi
6:00 am50 °FPassing clouds.8 mph100%29.98 "Hg4 mi
5:00 am50 °FPassing clouds.5 mph100%29.98 "Hg4 mi
4:19 am50 °FPassing clouds.5 mph94%29.98 "Hg4 mi
4:02 am50 °FLight fog.3 mph94%29.98 "Hg1 mi
3:00 am48 °FLight fog.2 mph100%30.01 "Hg1 mi
2:00 am48 °FLight fog.2 mph100%29.98 "Hg1 mi
1:39 am48 °FLight fog.3 mph100%29.98 "Hg1 mi
1:00 am50 °FClear.3 mph94%30.01 "Hg10 mi
12:00 am50 °FClear.5 mph94%30.01 "Hg10 mi
11:00 pm
Mon, Jun 14
50 °FClear.5 mph94%30.01 "Hg10 mi
10:51 pm50 °FClear.5 mph94%30.01 "Hg10 mi
10:00 pm52 °FFog.1 mph100%30.04 "Hg2 mi
9:00 pm52 °FClear.2 mph94%30.04 "Hg5 mi
8:00 pm54 °FClear.3 mph100%30.04 "Hg5 mi
7:00 pm57 °FClear.1 mph88%30.04 "Hg4 mi
6:00 pm59 °FClear.3 mph82%30.01 "Hg4 mi
5:00 pm63 °FSunny.7 mph77%30.01 "Hg10 mi
4:00 pm66 °FSunny.2 mph60%30.01 "Hg10 mi
3:00 pm64 °FPassing clouds.5 mph68%30.01 "HgN/A
2:00 pm63 °FPassing clouds.7 mph73%30.04 "HgN/A
1:00 pm63 °FSunny.8 mph73%30.07 "Hg10 mi
12:00 pm61 °FPassing clouds.9 mph77%30.07 "HgN/A
11:26 am59 °FPassing clouds.8 mph82%30.09 "HgN/A
11:00 am55 °FFog.7 mph100%30.09 "Hg2 mi
10:58 am55 °FFog.7 mph100%30.09 "Hg2 mi
10:29 am54 °FFog.5 mph100%30.09 "Hg0 mi
10:00 am50 °FFog.5 mph100%30.09 "Hg0 mi
9:53 am50 °FFog.5 mph100%30.09 "Hg0 mi
9:27 am50 °FFog.5 mph100%30.09 "Hg1 mi
9:03 am50 °FFog.3 mph94%30.09 "Hg1 mi
Weather by CustomWeather, © 2021

See weather overview